sensor_id;sensor_type;location;lat;lon;timestamp;P1;durP1;ratioP1;P2;durP2;ratioP2
44750;SDS011;30477;48.224;11.470;2023-02-11T00:01:43;56.63;;;30.87;;
44750;SDS011;30477;48.224;11.470;2023-02-11T00:04:08;54.87;;;31.20;;
44750;SDS011;30477;48.224;11.470;2023-02-11T00:06:34;56.97;;;30.73;;
44750;SDS011;30477;48.224;11.470;2023-02-11T00:09:00;54.17;;;30.67;;
44750;SDS011;30477;48.224;11.470;2023-02-11T00:13:55;57.67;;;30.48;;
44750;SDS011;30477;48.224;11.470;2023-02-11T00:16:26;58.78;;;32.38;;
44750;SDS011;30477;48.224;11.470;2023-02-11T00:18:51;60.22;;;32.88;;
44750;SDS011;30477;48.224;11.470;2023-02-11T00:21:20;51.75;;;30.90;;
44750;SDS011;30477;48.224;11.470;2023-02-11T00:23:47;56.45;;;30.20;;
44750;SDS011;30477;48.224;11.470;2023-02-11T00:26:13;52.97;;;29.95;;
44750;SDS011;30477;48.224;11.470;2023-02-11T00:28:45;55.58;;;30.02;;
44750;SDS011;30477;48.224;11.470;2023-02-11T00:31:12;52.60;;;29.85;;
44750;SDS011;30477;48.224;11.470;2023-02-11T00:33:38;54.75;;;28.17;;
44750;SDS011;30477;48.224;11.470;2023-02-11T00:36:04;48.83;;;28.43;;
44750;SDS011;30477;48.224;11.470;2023-02-11T00:38:31;51.75;;;29.30;;
44750;SDS011;30477;48.224;11.470;2023-02-11T00:40:56;52.93;;;29.97;;
44750;SDS011;30477;48.224;11.470;2023-02-11T00:43:22;50.83;;;29.07;;
44750;SDS011;30477;48.224;11.470;2023-02-11T00:45:47;51.60;;;29.43;;
44750;SDS011;30477;48.224;11.470;2023-02-11T00:48:12;51.80;;;29.17;;
44750;SDS011;30477;48.224;11.470;2023-02-11T00:50:37;53.97;;;29.63;;
44750;SDS011;30477;48.224;11.470;2023-02-11T00:53:03;55.77;;;29.43;;
44750;SDS011;30477;48.224;11.470;2023-02-11T00:55:28;49.03;;;28.17;;
44750;SDS011;30477;48.224;11.470;2023-02-11T00:57:54;51.60;;;29.37;;
44750;SDS011;30477;48.224;11.470;2023-02-11T01:00:19;55.40;;;29.40;;
44750;SDS011;30477;48.224;11.470;2023-02-11T01:02:46;51.47;;;29.23;;
44750;SDS011;30477;48.224;11.470;2023-02-11T01:05:11;48.77;;;27.70;;
44750;SDS011;30477;48.224;11.470;2023-02-11T01:07:36;51.57;;;29.63;;
44750;SDS011;30477;48.224;11.470;2023-02-11T01:10:02;55.53;;;30.07;;
44750;SDS011;30477;48.224;11.470;2023-02-11T01:12:28;54.33;;;28.98;;
44750;SDS011;30477;48.224;11.470;2023-02-11T01:14:53;51.43;;;29.20;;
44750;SDS011;30477;48.224;11.470;2023-02-11T01:17:19;58.10;;;31.17;;
44750;SDS011;30477;48.224;11.470;2023-02-11T01:19:44;58.23;;;30.33;;
44750;SDS011;30477;48.224;11.470;2023-02-11T01:22:09;64.43;;;33.57;;
44750;SDS011;30477;48.224;11.470;2023-02-11T01:24:35;69.63;;;34.90;;
44750;SDS011;30477;48.224;11.470;2023-02-11T01:27:00;69.40;;;34.90;;
44750;SDS011;30477;48.224;11.470;2023-02-11T01:29:25;68.83;;;35.50;;
44750;SDS011;30477;48.224;11.470;2023-02-11T01:31:50;87.67;;;40.60;;
44750;SDS011;30477;48.224;11.470;2023-02-11T01:34:16;71.80;;;34.97;;
44750;SDS011;30477;48.224;11.470;2023-02-11T01:36:41;72.80;;;33.13;;
44750;SDS011;30477;48.224;11.470;2023-02-11T01:39:07;62.58;;;32.42;;
44750;SDS011;30477;48.224;11.470;2023-02-11T01:41:33;61.50;;;30.90;;
44750;SDS011;30477;48.224;11.470;2023-02-11T01:44:20;58.53;;;31.77;;
44750;SDS011;30477;48.224;11.470;2023-02-11T01:46:50;65.72;;;31.52;;
44750;SDS011;30477;48.224;11.470;2023-02-11T01:49:17;60.23;;;30.83;;
44750;SDS011;30477;48.224;11.470;2023-02-11T01:54:17;55.00;;;31.00;;
44750;SDS011;30477;48.224;11.470;2023-02-11T01:57:04;52.58;;;28.00;;
44750;SDS011;30477;48.224;11.470;2023-02-11T02:05:33;56.75;;;30.05;;
44750;SDS011;30477;48.224;11.470;2023-02-11T02:10:42;50.83;;;28.75;;
44750;SDS011;30477;48.224;11.470;2023-02-11T02:13:09;55.25;;;29.27;;
44750;SDS011;30477;48.224;11.470;2023-02-11T02:15:36;57.17;;;29.67;;
44750;SDS011;30477;48.224;11.470;2023-02-11T02:18:09;48.17;;;28.88;;
44750;SDS011;30477;48.224;11.470;2023-02-11T02:20:40;49.80;;;29.20;;
44750;SDS011;30477;48.224;11.470;2023-02-11T02:28:41;46.25;;;26.88;;
44750;SDS011;30477;48.224;11.470;2023-02-11T02:34:15;48.88;;;26.85;;
44750;SDS011;30477;48.224;11.470;2023-02-11T02:36:47;45.42;;;26.13;;
44750;SDS011;30477;48.224;11.470;2023-02-11T02:39:23;46.90;;;26.73;;
44750;SDS011;30477;48.224;11.470;2023-02-11T02:41:51;51.13;;;27.10;;
44750;SDS011;30477;48.224;11.470;2023-02-11T02:44:19;50.03;;;26.73;;
44750;SDS011;30477;48.224;11.470;2023-02-11T02:46:44;50.70;;;26.65;;
44750;SDS011;30477;48.224;11.470;2023-02-11T02:49:13;49.23;;;26.37;;
44750;SDS011;30477;48.224;11.470;2023-02-11T03:03:08;41.17;;;23.67;;
44750;SDS011;30477;48.224;11.470;2023-02-11T03:05:47;41.08;;;23.02;;
44750;SDS011;30477;48.224;11.470;2023-02-11T03:10:55;38.58;;;21.63;;
44750;SDS011;30477;48.224;11.470;2023-02-11T03:13:23;36.85;;;20.63;;
44750;SDS011;30477;48.224;11.470;2023-02-11T03:15:54;38.38;;;21.70;;
44750;SDS011;30477;48.224;11.470;2023-02-11T03:18:23;36.33;;;19.67;;
44750;SDS011;30477;48.224;11.470;2023-02-11T03:20:52;37.28;;;21.02;;
44750;SDS011;30477;48.224;11.470;2023-02-11T03:23:21;35.42;;;19.75;;
44750;SDS011;30477;48.224;11.470;2023-02-11T03:25:55;37.03;;;19.75;;
44750;SDS011;30477;48.224;11.470;2023-02-11T03:28:34;36.67;;;21.05;;
44750;SDS011;30477;48.224;11.470;2023-02-11T03:31:17;39.25;;;20.50;;
44750;SDS011;30477;48.224;11.470;2023-02-11T03:33:53;35.25;;;20.20;;
44750;SDS011;30477;48.224;11.470;2023-02-11T03:36:27;34.92;;;19.60;;
44750;SDS011;30477;48.224;11.470;2023-02-11T03:39:02;32.90;;;18.95;;
44750;SDS011;30477;48.224;11.470;2023-02-11T03:41:30;32.65;;;18.52;;
44750;SDS011;30477;48.224;11.470;2023-02-11T03:43:58;36.00;;;19.15;;
44750;SDS011;30477;48.224;11.470;2023-02-11T03:46:29;32.55;;;19.13;;
44750;SDS011;30477;48.224;11.470;2023-02-11T03:49:02;41.15;;;20.27;;
44750;SDS011;30477;48.224;11.470;2023-02-11T03:51:33;34.17;;;19.08;;
44750;SDS011;30477;48.224;11.470;2023-02-11T03:54:01;31.55;;;19.20;;
44750;SDS011;30477;48.224;11.470;2023-02-11T03:56:31;33.47;;;19.35;;
44750;SDS011;30477;48.224;11.470;2023-02-11T03:58:59;34.88;;;19.58;;
44750;SDS011;30477;48.224;11.470;2023-02-11T04:01:25;34.78;;;20.77;;
44750;SDS011;30477;48.224;11.470;2023-02-11T04:03:50;33.33;;;19.63;;
44750;SDS011;30477;48.224;11.470;2023-02-11T04:06:16;36.53;;;20.20;;
44750;SDS011;30477;48.224;11.470;2023-02-11T04:08:41;36.13;;;20.58;;
44750;SDS011;30477;48.224;11.470;2023-02-11T04:11:06;40.07;;;20.50;;
44750;SDS011;30477;48.224;11.470;2023-02-11T04:13:32;33.30;;;20.30;;
44750;SDS011;30477;48.224;11.470;2023-02-11T04:15:57;34.87;;;20.30;;
44750;SDS011;30477;48.224;11.470;2023-02-11T04:18:22;36.20;;;21.07;;
44750;SDS011;30477;48.224;11.470;2023-02-11T04:20:49;35.53;;;20.90;;
44750;SDS011;30477;48.224;11.470;2023-02-11T04:23:14;37.17;;;20.95;;
44750;SDS011;30477;48.224;11.470;2023-02-11T04:25:40;38.87;;;20.90;;
44750;SDS011;30477;48.224;11.470;2023-02-11T04:28:06;39.25;;;21.73;;
44750;SDS011;30477;48.224;11.470;2023-02-11T04:30:31;36.30;;;20.50;;
44750;SDS011;30477;48.224;11.470;2023-02-11T04:32:57;33.83;;;20.43;;
44750;SDS011;30477;48.224;11.470;2023-02-11T04:35:22;38.13;;;21.65;;
44750;SDS011;30477;48.224;11.470;2023-02-11T04:37:47;39.50;;;21.47;;
44750;SDS011;30477;48.224;11.470;2023-02-11T04:40:13;37.30;;;21.13;;
44750;SDS011;30477;48.224;11.470;2023-02-11T04:42:38;36.83;;;20.07;;
44750;SDS011;30477;48.224;11.470;2023-02-11T04:45:03;33.70;;;20.27;;
44750;SDS011;30477;48.224;11.470;2023-02-11T04:49:55;41.43;;;22.23;;
44750;SDS011;30477;48.224;11.470;2023-02-11T04:52:20;39.57;;;22.43;;
44750;SDS011;30477;48.224;11.470;2023-02-11T04:54:46;35.33;;;20.27;;
44750;SDS011;30477;48.224;11.470;2023-02-11T04:57:11;38.20;;;21.33;;
44750;SDS011;30477;48.224;11.470;2023-02-11T04:59:36;36.50;;;20.90;;
44750;SDS011;30477;48.224;11.470;2023-02-11T05:02:02;38.27;;;21.67;;
44750;SDS011;30477;48.224;11.470;2023-02-11T05:04:28;35.13;;;20.23;;
44750;SDS011;30477;48.224;11.470;2023-02-11T05:06:53;35.60;;;20.60;;
44750;SDS011;30477;48.224;11.470;2023-02-11T05:09:19;38.57;;;21.57;;
44750;SDS011;30477;48.224;11.470;2023-02-11T05:11:44;43.73;;;22.20;;
44750;SDS011;30477;48.224;11.470;2023-02-11T05:14:09;38.13;;;21.77;;
44750;SDS011;30477;48.224;11.470;2023-02-11T05:16:35;42.20;;;22.33;;
44750;SDS011;30477;48.224;11.470;2023-02-11T05:19:00;39.00;;;21.43;;
44750;SDS011;30477;48.224;11.470;2023-02-11T05:21:25;35.73;;;21.03;;
44750;SDS011;30477;48.224;11.470;2023-02-11T05:23:51;36.50;;;20.47;;
44750;SDS011;30477;48.224;11.470;2023-02-11T05:26:17;39.07;;;20.40;;
44750;SDS011;30477;48.224;11.470;2023-02-11T05:28:43;32.88;;;19.45;;
44750;SDS011;30477;48.224;11.470;2023-02-11T05:31:09;40.08;;;21.08;;
44750;SDS011;30477;48.224;11.470;2023-02-11T05:33:35;37.97;;;20.27;;
44750;SDS011;30477;48.224;11.470;2023-02-11T05:36:04;33.97;;;19.50;;
44750;SDS011;30477;48.224;11.470;2023-02-11T05:38:32;35.58;;;18.58;;
44750;SDS011;30477;48.224;11.470;2023-02-11T05:40:57;32.22;;;20.08;;
44750;SDS011;30477;48.224;11.470;2023-02-11T05:43:23;34.97;;;19.10;;
44750;SDS011;30477;48.224;11.470;2023-02-11T05:45:48;34.85;;;19.30;;
44750;SDS011;30477;48.224;11.470;2023-02-11T05:48:14;29.90;;;18.27;;
44750;SDS011;30477;48.224;11.470;2023-02-11T05:50:39;31.97;;;17.67;;
44750;SDS011;30477;48.224;11.470;2023-02-11T05:53:05;29.17;;;17.35;;
44750;SDS011;30477;48.224;11.470;2023-02-11T05:55:30;28.60;;;18.17;;
44750;SDS011;30477;48.224;11.470;2023-02-11T05:57:56;26.60;;;17.30;;
44750;SDS011;30477;48.224;11.470;2023-02-11T06:00:21;36.37;;;19.00;;
44750;SDS011;30477;48.224;11.470;2023-02-11T06:02:47;29.23;;;16.80;;
44750;SDS011;30477;48.224;11.470;2023-02-11T06:05:12;29.47;;;17.17;;
44750;SDS011;30477;48.224;11.470;2023-02-11T06:07:37;30.00;;;16.40;;
44750;SDS011;30477;48.224;11.470;2023-02-11T06:10:02;32.37;;;16.80;;
44750;SDS011;30477;48.224;11.470;2023-02-11T06:12:28;27.45;;;15.77;;
44750;SDS011;30477;48.224;11.470;2023-02-11T06:14:53;27.77;;;16.00;;
44750;SDS011;30477;48.224;11.470;2023-02-11T06:17:19;26.93;;;15.60;;
44750;SDS011;30477;48.224;11.470;2023-02-11T06:19:44;27.80;;;16.10;;
44750;SDS011;30477;48.224;11.470;2023-02-11T06:22:09;28.33;;;15.97;;
44750;SDS011;30477;48.224;11.470;2023-02-11T06:24:35;26.87;;;15.57;;
44750;SDS011;30477;48.224;11.470;2023-02-11T06:27:02;27.75;;;16.27;;
44750;SDS011;30477;48.224;11.470;2023-02-11T06:31:53;26.17;;;15.60;;
44750;SDS011;30477;48.224;11.470;2023-02-11T06:34:18;24.67;;;15.80;;
44750;SDS011;30477;48.224;11.470;2023-02-11T06:36:43;28.60;;;15.83;;
44750;SDS011;30477;48.224;11.470;2023-02-11T06:39:09;27.97;;;16.27;;
44750;SDS011;30477;48.224;11.470;2023-02-11T06:41:36;23.38;;;14.50;;
44750;SDS011;30477;48.224;11.470;2023-02-11T06:44:01;25.00;;;15.20;;
44750;SDS011;30477;48.224;11.470;2023-02-11T06:46:27;25.77;;;15.33;;
44750;SDS011;30477;48.224;11.470;2023-02-11T06:48:52;25.30;;;15.30;;
44750;SDS011;30477;48.224;11.470;2023-02-11T06:51:17;28.17;;;15.77;;
44750;SDS011;30477;48.224;11.470;2023-02-11T06:53:43;24.40;;;14.50;;
44750;SDS011;30477;48.224;11.470;2023-02-11T06:56:11;23.85;;;14.32;;
44750;SDS011;30477;48.224;11.470;2023-02-11T06:58:40;27.10;;;15.93;;
44750;SDS011;30477;48.224;11.470;2023-02-11T07:01:10;31.17;;;16.00;;
44750;SDS011;30477;48.224;11.470;2023-02-11T07:03:38;25.52;;;15.10;;
44750;SDS011;30477;48.224;11.470;2023-02-11T07:06:05;28.50;;;16.10;;
44750;SDS011;30477;48.224;11.470;2023-02-11T07:08:33;25.45;;;14.93;;
44750;SDS011;30477;48.224;11.470;2023-02-11T07:10:59;25.67;;;15.80;;
44750;SDS011;30477;48.224;11.470;2023-02-11T07:13:24;28.77;;;14.90;;
44750;SDS011;30477;48.224;11.470;2023-02-11T07:15:49;27.63;;;15.67;;
44750;SDS011;30477;48.224;11.470;2023-02-11T07:18:15;26.80;;;14.17;;
44750;SDS011;30477;48.224;11.470;2023-02-11T07:20:40;23.73;;;14.60;;
44750;SDS011;30477;48.224;11.470;2023-02-11T07:23:05;24.53;;;13.43;;
44750;SDS011;30477;48.224;11.470;2023-02-11T07:25:31;23.97;;;13.20;;
44750;SDS011;30477;48.224;11.470;2023-02-11T07:27:56;23.50;;;13.77;;
44750;SDS011;30477;48.224;11.470;2023-02-11T07:30:22;21.43;;;13.50;;
44750;SDS011;30477;48.224;11.470;2023-02-11T07:32:47;24.30;;;13.50;;
44750;SDS011;30477;48.224;11.470;2023-02-11T07:35:13;25.92;;;13.50;;
44750;SDS011;30477;48.224;11.470;2023-02-11T07:37:39;22.52;;;13.25;;
44750;SDS011;30477;48.224;11.470;2023-02-11T07:40:05;22.08;;;12.95;;
44750;SDS011;30477;48.224;11.470;2023-02-11T07:42:32;21.80;;;13.27;;
44750;SDS011;30477;48.224;11.470;2023-02-11T07:44:58;21.73;;;13.38;;
44750;SDS011;30477;48.224;11.470;2023-02-11T07:47:23;22.10;;;12.70;;
44750;SDS011;30477;48.224;11.470;2023-02-11T07:49:49;20.07;;;11.90;;
44750;SDS011;30477;48.224;11.470;2023-02-11T07:52:14;21.10;;;11.93;;
44750;SDS011;30477;48.224;11.470;2023-02-11T07:54:39;21.63;;;12.87;;
44750;SDS011;30477;48.224;11.470;2023-02-11T07:57:05;25.30;;;12.50;;
44750;SDS011;30477;48.224;11.470;2023-02-11T07:59:30;18.27;;;12.33;;
44750;SDS011;30477;48.224;11.470;2023-02-11T08:01:55;21.73;;;13.17;;
44750;SDS011;30477;48.224;11.470;2023-02-11T08:04:21;19.70;;;12.27;;
44750;SDS011;30477;48.224;11.470;2023-02-11T08:06:46;23.83;;;12.70;;
44750;SDS011;30477;48.224;11.470;2023-02-11T08:09:13;28.20;;;12.87;;
44750;SDS011;30477;48.224;11.470;2023-02-11T08:11:41;30.92;;;12.38;;
44750;SDS011;30477;48.224;11.470;2023-02-11T08:14:07;22.35;;;12.95;;
44750;SDS011;30477;48.224;11.470;2023-02-11T08:19:00;28.90;;;11.77;;
44750;SDS011;30477;48.224;11.470;2023-02-11T08:21:28;22.90;;;12.40;;
44750;SDS011;30477;48.224;11.470;2023-02-11T08:26:23;29.55;;;13.40;;
44750;SDS011;30477;48.224;11.470;2023-02-11T08:28:51;29.25;;;12.85;;
44750;SDS011;30477;48.224;11.470;2023-02-11T08:31:19;26.30;;;12.60;;
44750;SDS011;30477;48.224;11.470;2023-02-11T08:33:47;32.05;;;13.20;;
44750;SDS011;30477;48.224;11.470;2023-02-11T08:36:14;23.27;;;13.30;;
44750;SDS011;30477;48.224;11.470;2023-02-11T08:38:44;29.23;;;12.80;;
44750;SDS011;30477;48.224;11.470;2023-02-11T08:41:10;23.80;;;12.00;;
44750;SDS011;30477;48.224;11.470;2023-02-11T08:43:38;21.05;;;11.50;;
44750;SDS011;30477;48.224;11.470;2023-02-11T08:46:08;17.35;;;11.02;;
44750;SDS011;30477;48.224;11.470;2023-02-11T08:48:35;18.95;;;11.55;;
44750;SDS011;30477;48.224;11.470;2023-02-11T08:51:04;23.00;;;11.80;;
44750;SDS011;30477;48.224;11.470;2023-02-11T08:53:34;36.38;;;17.63;;
44750;SDS011;30477;48.224;11.470;2023-02-11T08:56:00;29.75;;;11.85;;
44750;SDS011;30477;48.224;11.470;2023-02-11T08:58:26;21.92;;;12.20;;
44750;SDS011;30477;48.224;11.470;2023-02-11T09:00:52;24.63;;;11.90;;
44750;SDS011;30477;48.224;11.470;2023-02-11T09:03:17;25.60;;;12.10;;
44750;SDS011;30477;48.224;11.470;2023-02-11T09:05:43;31.20;;;12.03;;
44750;SDS011;30477;48.224;11.470;2023-02-11T09:08:10;19.80;;;11.45;;
44750;SDS011;30477;48.224;11.470;2023-02-11T09:10:36;29.73;;;12.27;;
44750;SDS011;30477;48.224;11.470;2023-02-11T09:13:02;31.73;;;12.82;;
44750;SDS011;30477;48.224;11.470;2023-02-11T09:15:27;32.67;;;12.32;;
44750;SDS011;30477;48.224;11.470;2023-02-11T09:17:53;31.90;;;13.50;;
44750;SDS011;30477;48.224;11.470;2023-02-11T09:20:18;28.87;;;13.30;;
44750;SDS011;30477;48.224;11.470;2023-02-11T09:22:45;29.70;;;12.40;;
44750;SDS011;30477;48.224;11.470;2023-02-11T09:25:10;25.90;;;13.35;;
44750;SDS011;30477;48.224;11.470;2023-02-11T09:27:35;28.57;;;14.27;;
44750;SDS011;30477;48.224;11.470;2023-02-11T09:30:01;35.03;;;14.60;;
44750;SDS011;30477;48.224;11.470;2023-02-11T09:32:26;26.37;;;13.93;;
44750;SDS011;30477;48.224;11.470;2023-02-11T09:34:51;36.17;;;16.23;;
44750;SDS011;30477;48.224;11.470;2023-02-11T09:37:17;29.07;;;14.57;;
44750;SDS011;30477;48.224;11.470;2023-02-11T09:39:42;32.30;;;14.50;;
44750;SDS011;30477;48.224;11.470;2023-02-11T09:44:56;24.30;;;13.13;;
44750;SDS011;30477;48.224;11.470;2023-02-11T09:47:25;24.48;;;13.57;;
44750;SDS011;30477;48.224;11.470;2023-02-11T09:50:06;29.27;;;13.57;;
44750;SDS011;30477;48.224;11.470;2023-02-11T09:55:20;32.67;;;14.73;;
44750;SDS011;30477;48.224;11.470;2023-02-11T09:57:50;32.63;;;15.20;;
44750;SDS011;30477;48.224;11.470;2023-02-11T10:00:20;26.00;;;15.63;;
44750;SDS011;30477;48.224;11.470;2023-02-11T10:03:03;32.13;;;16.65;;
44750;SDS011;30477;48.224;11.470;2023-02-11T10:06:18;36.33;;;17.10;;
44750;SDS011;30477;48.224;11.470;2023-02-11T10:24:50;37.22;;;19.35;;
44750;SDS011;30477;48.224;11.470;2023-02-11T10:27:19;33.20;;;18.92;;
44750;SDS011;30477;48.224;11.470;2023-02-11T10:29:50;34.75;;;18.25;;
44750;SDS011;30477;48.224;11.470;2023-02-11T10:32:27;34.55;;;18.70;;
44750;SDS011;30477;48.224;11.470;2023-02-11T10:34:57;34.53;;;18.67;;
44750;SDS011;30477;48.224;11.470;2023-02-11T10:37:27;31.73;;;18.83;;
44750;SDS011;30477;48.224;11.470;2023-02-11T10:39:54;32.53;;;20.52;;
44750;SDS011;30477;48.224;11.470;2023-02-11T10:42:19;41.40;;;22.80;;
44750;SDS011;30477;48.224;11.470;2023-02-11T10:44:48;33.93;;;20.10;;
44750;SDS011;30477;48.224;11.470;2023-02-11T10:47:21;35.00;;;19.50;;
44750;SDS011;30477;48.224;11.470;2023-02-11T10:49:50;31.70;;;18.65;;
44750;SDS011;30477;48.224;11.470;2023-02-11T10:52:25;34.67;;;19.03;;
44750;SDS011;30477;48.224;11.470;2023-02-11T10:54:55;31.15;;;18.73;;
44750;SDS011;30477;48.224;11.470;2023-02-11T10:57:32;29.88;;;18.02;;
44750;SDS011;30477;48.224;11.470;2023-02-11T11:00:05;30.98;;;18.50;;
44750;SDS011;30477;48.224;11.470;2023-02-11T11:02:44;32.97;;;19.85;;
44750;SDS011;30477;48.224;11.470;2023-02-11T11:05:17;36.47;;;18.85;;
44750;SDS011;30477;48.224;11.470;2023-02-11T11:07:55;29.65;;;18.58;;
44750;SDS011;30477;48.224;11.470;2023-02-11T11:10:36;28.63;;;17.83;;
44750;SDS011;30477;48.224;11.470;2023-02-11T11:13:30;27.52;;;17.20;;
44750;SDS011;30477;48.224;11.470;2023-02-11T11:16:06;32.13;;;18.45;;
44750;SDS011;30477;48.224;11.470;2023-02-11T11:18:31;35.47;;;19.05;;
44750;SDS011;30477;48.224;11.470;2023-02-11T11:20:58;31.27;;;19.97;;
44750;SDS011;30477;48.224;11.470;2023-02-11T11:23:27;34.40;;;19.02;;
44750;SDS011;30477;48.224;11.470;2023-02-11T11:28:32;31.58;;;19.23;;
44750;SDS011;30477;48.224;11.470;2023-02-11T11:31:03;34.00;;;18.27;;
44750;SDS011;30477;48.224;11.470;2023-02-11T11:33:31;30.42;;;19.13;;
44750;SDS011;30477;48.224;11.470;2023-02-11T11:38:28;32.33;;;20.00;;
44750;SDS011;30477;48.224;11.470;2023-02-11T11:44:14;32.22;;;18.23;;
44750;SDS011;30477;48.224;11.470;2023-02-11T11:46:47;30.42;;;18.27;;
44750;SDS011;30477;48.224;11.470;2023-02-11T11:49:30;32.38;;;19.75;;
44750;SDS011;30477;48.224;11.470;2023-02-11T11:52:14;36.05;;;20.20;;
44750;SDS011;30477;48.224;11.470;2023-02-11T11:54:46;30.98;;;19.70;;
44750;SDS011;30477;48.224;11.470;2023-02-11T11:57:21;30.30;;;19.83;;
44750;SDS011;30477;48.224;11.470;2023-02-11T11:59:50;29.63;;;18.77;;
44750;SDS011;30477;48.224;11.470;2023-02-11T12:05:11;31.88;;;19.15;;
44750;SDS011;30477;48.224;11.470;2023-02-11T12:07:44;35.22;;;20.58;;
44750;SDS011;30477;48.224;11.470;2023-02-11T12:12:46;35.88;;;19.80;;
44750;SDS011;30477;48.224;11.470;2023-02-11T12:15:54;34.35;;;19.63;;
44750;SDS011;30477;48.224;11.470;2023-02-11T12:27:05;29.17;;;18.70;;
44750;SDS011;30477;48.224;11.470;2023-02-11T12:35:14;29.80;;;18.27;;
44750;SDS011;30477;48.224;11.470;2023-02-11T12:48:17;30.35;;;17.15;;
44750;SDS011;30477;48.224;11.470;2023-02-11T12:56:25;27.65;;;16.55;;
44750;SDS011;30477;48.224;11.470;2023-02-11T12:58:57;27.95;;;16.75;;
44750;SDS011;30477;48.224;11.470;2023-02-11T13:01:26;29.08;;;17.25;;
44750;SDS011;30477;48.224;11.470;2023-02-11T13:03:58;30.15;;;16.85;;
44750;SDS011;30477;48.224;11.470;2023-02-11T13:06:36;32.38;;;18.38;;
44750;SDS011;30477;48.224;11.470;2023-02-11T13:09:08;29.73;;;17.42;;
44750;SDS011;30477;48.224;11.470;2023-02-11T13:11:42;31.20;;;17.88;;
44750;SDS011;30477;48.224;11.470;2023-02-11T13:16:53;27.98;;;17.80;;
44750;SDS011;30477;48.224;11.470;2023-02-11T13:19:53;30.70;;;18.17;;
44750;SDS011;30477;48.224;11.470;2023-02-11T13:22:25;30.98;;;18.75;;
44750;SDS011;30477;48.224;11.470;2023-02-11T13:25:06;29.73;;;17.50;;
44750;SDS011;30477;48.224;11.470;2023-02-11T13:27:49;36.13;;;18.90;;
44750;SDS011;30477;48.224;11.470;2023-02-11T13:30:55;28.63;;;18.30;;
44750;SDS011;30477;48.224;11.470;2023-02-11T13:38:23;27.00;;;17.90;;
44750;SDS011;30477;48.224;11.470;2023-02-11T13:41:01;27.35;;;16.58;;
44750;SDS011;30477;48.224;11.470;2023-02-11T13:44:00;25.30;;;16.05;;
44750;SDS011;30477;48.224;11.470;2023-02-11T13:46:26;30.00;;;16.80;;
44750;SDS011;30477;48.224;11.470;2023-02-11T13:48:54;26.70;;;16.98;;
44750;SDS011;30477;48.224;11.470;2023-02-11T13:54:02;28.02;;;16.48;;
44750;SDS011;30477;48.224;11.470;2023-02-11T13:58:57;29.67;;;18.00;;
44750;SDS011;30477;48.224;11.470;2023-02-11T14:04:30;30.23;;;18.17;;
44750;SDS011;30477;48.224;11.470;2023-02-11T14:07:35;29.52;;;18.27;;
44750;SDS011;30477;48.224;11.470;2023-02-11T14:16:12;33.78;;;20.08;;
44750;SDS011;30477;48.224;11.470;2023-02-11T14:21:12;35.33;;;20.67;;
44750;SDS011;30477;48.224;11.470;2023-02-11T14:23:38;37.60;;;20.15;;
44750;SDS011;30477;48.224;11.470;2023-02-11T14:31:53;30.63;;;19.13;;
44750;SDS011;30477;48.224;11.470;2023-02-11T14:42:41;34.38;;;20.90;;
44750;SDS011;30477;48.224;11.470;2023-02-11T14:45:08;36.08;;;21.33;;
44750;SDS011;30477;48.224;11.470;2023-02-11T14:47:39;31.88;;;20.95;;
44750;SDS011;30477;48.224;11.470;2023-02-11T14:50:13;34.92;;;20.35;;
44750;SDS011;30477;48.224;11.470;2023-02-11T14:52:42;32.25;;;20.65;;
44750;SDS011;30477;48.224;11.470;2023-02-11T14:57:45;33.38;;;20.15;;
44750;SDS011;30477;48.224;11.470;2023-02-11T15:02:46;31.63;;;19.60;;
44750;SDS011;30477;48.224;11.470;2023-02-11T15:07:46;32.85;;;19.33;;
44750;SDS011;30477;48.224;11.470;2023-02-11T15:13:01;36.75;;;20.98;;
44750;SDS011;30477;48.224;11.470;2023-02-11T15:15:28;30.33;;;20.48;;
44750;SDS011;30477;48.224;11.470;2023-02-11T15:17:56;34.63;;;20.90;;
44750;SDS011;30477;48.224;11.470;2023-02-11T15:20:25;36.53;;;21.15;;
44750;SDS011;30477;48.224;11.470;2023-02-11T15:23:01;36.67;;;22.15;;
44750;SDS011;30477;48.224;11.470;2023-02-11T15:25:29;29.13;;;15.53;;
44750;SDS011;30477;48.224;11.470;2023-02-11T15:27:55;34.53;;;21.77;;
44750;SDS011;30477;48.224;11.470;2023-02-11T15:35:22;34.95;;;20.23;;
44750;SDS011;30477;48.224;11.470;2023-02-11T15:37:47;31.08;;;19.65;;
44750;SDS011;30477;48.224;11.470;2023-02-11T15:40:17;37.43;;;21.60;;
44750;SDS011;30477;48.224;11.470;2023-02-11T15:42:52;38.65;;;21.52;;
44750;SDS011;30477;48.224;11.470;2023-02-11T15:47:48;35.17;;;20.37;;
44750;SDS011;30477;48.224;11.470;2023-02-11T15:50:20;33.13;;;20.58;;
44750;SDS011;30477;48.224;11.470;2023-02-11T15:52:47;35.97;;;21.58;;
44750;SDS011;30477;48.224;11.470;2023-02-11T15:55:13;36.72;;;21.83;;
44750;SDS011;30477;48.224;11.470;2023-02-11T15:57:41;40.28;;;22.17;;
44750;SDS011;30477;48.224;11.470;2023-02-11T16:00:14;33.88;;;20.38;;
44750;SDS011;30477;48.224;11.470;2023-02-11T16:02:45;39.65;;;21.00;;
44750;SDS011;30477;48.224;11.470;2023-02-11T16:05:23;40.97;;;22.48;;
44750;SDS011;30477;48.224;11.470;2023-02-11T16:07:51;32.08;;;20.02;;
44750;SDS011;30477;48.224;11.470;2023-02-11T16:10:18;40.43;;;22.27;;
44750;SDS011;30477;48.224;11.470;2023-02-11T16:15:43;44.47;;;24.35;;
44750;SDS011;30477;48.224;11.470;2023-02-11T16:21:03;50.15;;;26.55;;
44750;SDS011;30477;48.224;11.470;2023-02-11T16:23:34;47.92;;;26.95;;
44750;SDS011;30477;48.224;11.470;2023-02-11T16:28:48;43.80;;;24.58;;
44750;SDS011;30477;48.224;11.470;2023-02-11T16:31:14;38.70;;;23.88;;
44750;SDS011;30477;48.224;11.470;2023-02-11T16:33:40;41.20;;;23.27;;
44750;SDS011;30477;48.224;11.470;2023-02-11T16:36:09;38.77;;;23.73;;
44750;SDS011;30477;48.224;11.470;2023-02-11T16:38:37;40.35;;;22.20;;
44750;SDS011;30477;48.224;11.470;2023-02-11T16:41:02;36.33;;;22.80;;
44750;SDS011;30477;48.224;11.470;2023-02-11T16:43:28;39.83;;;23.30;;
44750;SDS011;30477;48.224;11.470;2023-02-11T16:45:53;35.00;;;21.73;;
44750;SDS011;30477;48.224;11.470;2023-02-11T16:48:18;35.43;;;22.40;;
44750;SDS011;30477;48.224;11.470;2023-02-11T16:50:45;42.05;;;23.10;;
44750;SDS011;30477;48.224;11.470;2023-02-11T16:53:14;36.85;;;22.42;;
44750;SDS011;30477;48.224;11.470;2023-02-11T16:55:44;43.58;;;22.70;;
44750;SDS011;30477;48.224;11.470;2023-02-11T16:58:09;39.97;;;24.03;;
44750;SDS011;30477;48.224;11.470;2023-02-11T17:00:35;38.87;;;23.77;;
44750;SDS011;30477;48.224;11.470;2023-02-11T17:03:02;45.20;;;24.15;;
44750;SDS011;30477;48.224;11.470;2023-02-11T17:05:30;42.83;;;24.58;;
44750;SDS011;30477;48.224;11.470;2023-02-11T17:07:56;43.42;;;24.85;;
44750;SDS011;30477;48.224;11.470;2023-02-11T17:10:21;48.37;;;25.53;;
44750;SDS011;30477;48.224;11.470;2023-02-11T17:15:13;42.83;;;22.88;;
44750;SDS011;30477;48.224;11.470;2023-02-11T17:17:39;42.53;;;25.43;;